METAR Data
IDs: Format: Raw Decoded Include TAF

Data at: 2121 UTC 20 Nov 2018

KDZB 202115Z AUTO 34005KT 10SM CLR 16/01 A3029 RMK AO2 T01600009
KDZB 202055Z AUTO 00000KT 10SM CLR 16/01 A3030 RMK AO2 T01600009
KDZB 202035Z AUTO 35004KT 10SM CLR 16/01 A3030 RMK AO2 T01600010
KDZB 202015Z AUTO 01003KT 10SM CLR 16/01 A3031 RMK AO2 T01560007
KDZB 201955Z AUTO 07003KT 10SM CLR 16/01 A3032 RMK AO2 T01600010
KDZB 201935Z AUTO 36004KT 10SM CLR 15/02 A3032 RMK AO2 T01530017
KDZB 201915Z AUTO 36003KT 10SM CLR 15/01 A3033 RMK AO2 T01500013
KDZB 201855Z AUTO 35005KT 10SM CLR 15/02 A3034 RMK AO2 T01470015
KDZB 201835Z AUTO 36005KT 10SM CLR 15/01 A3035 RMK AO2 T01450013
KDZB 201815Z AUTO 07004KT 10SM CLR 14/02 A3037 RMK AO2 T01430016
KDZB 201755Z AUTO 01003KT 10SM CLR 14/03 A3038 RMK AO2 T01400031 10140 20016
KDZB 201735Z AUTO 01007KT 10SM CLR 14/03 A3038 RMK AO2 T01390028
KDZB 201715Z AUTO 06003KT 10SM CLR 13/03 A3040 RMK AO2 T01290033
KDZB 201655Z AUTO 00000KT 10SM CLR 12/04 A3040 RMK AO2 T01200036
KDZB 201635Z AUTO 00000KT 10SM CLR 11/04 A3040 RMK AO2 T01130044
KDZB 201615Z AUTO 00000KT 10SM CLR 10/04 A3040 RMK AO2 T01030044
KDZB 201555Z AUTO 33003KT 10SM CLR 09/04 A3040 RMK AO2 T00910044
KDZB 201535Z AUTO 00000KT 10SM CLR 08/05 A3040 RMK AO2 T00820045
KDZB 201515Z AUTO 00000KT 10SM CLR 07/05 A3039 RMK AO2 T00710046
KDZB 201455Z AUTO 30003KT 10SM CLR 07/05 A3039 RMK AO2 T00650045
KDZB 201435Z AUTO 00000KT 10SM CLR 06/05 A3038 RMK AO2 T00560048
KDZB 201415Z AUTO 00000KT 10SM CLR 05/04 A3037 RMK AO2 T00450042
KDZB 201355Z AUTO 00000KT 10SM CLR 04/04 A3036 RMK AO2 T00370037
KDZB 201335Z AUTO 00000KT 7SM CLR 03/03 A3035 RMK AO2 T00270027
KDZB 201315Z AUTO 00000KT 7SM CLR 03/03 A3035 RMK AO2 T00250025
KDZB 201255Z AUTO 00000KT 10SM CLR 02/02 A3033 RMK AO2 T00230023
KDZB 201235Z AUTO 00000KT 10SM CLR 02/02 A3033 RMK AO2 T00210021
KDZB 201215Z AUTO 00000KT 10SM CLR 02/02 A3032 RMK AO2 T00190019
KDZB 201155Z AUTO 00000KT 10SM CLR 02/02 A3032 RMK AO2 T00150015 10069 20012
KDZB 201135Z AUTO 00000KT 10SM CLR 02/02 A3031 RMK AO2 T00150015
KDZB 201115Z AUTO 00000KT 10SM CLR 02/02 A3031 RMK AO2 T00170017
KDZB 201055Z AUTO 00000KT 10SM CLR 02/02 A3030 RMK AO2 T00200020
KDZB 201035Z AUTO 00000KT 10SM CLR 02/02 A3030 RMK AO2 T00220022
KDZB 201015Z AUTO 00000KT 10SM CLR 02/02 A3030 RMK AO2 T00230023
KDZB 200955Z AUTO 00000KT 10SM CLR 03/03 A3030 RMK AO2 T00250025
KDZB 200935Z AUTO 00000KT 10SM CLR 03/03 A3029 RMK AO2 T00250025
KDZB 200915Z AUTO 00000KT 10SM CLR 02/02 A3029 RMK AO2 T00220021
KDZB 200855Z AUTO 00000KT 10SM CLR 03/02 A3029 RMK AO2 T00250023
KDZB 200835Z AUTO 00000KT 10SM CLR 03/03 A3029 RMK AO2 T00280026
KDZB 200815Z AUTO 00000KT 10SM CLR 03/03 A3028 RMK AO2 T00300027
KDZB 200755Z AUTO 00000KT 10SM CLR 03/03 A3028 RMK AO2 T00320028
KDZB 200735Z AUTO 00000KT 10SM CLR 04/03 A3028 RMK AO2 T00360030
KDZB 200715Z AUTO 00000KT 10SM CLR 04/03 A3028 RMK AO2 T00420034
KDZB 200655Z AUTO 00000KT 10SM CLR 05/04 A3028 RMK AO2 T00470037
KDZB 200635Z AUTO 00000KT 10SM CLR 05/04 A3027 RMK AO2 T00500038
KDZB 200615Z AUTO 00000KT 10SM CLR 06/04 A3027 RMK AO2 T00590043
KDZB 200555Z AUTO 00000KT 10SM CLR 07/05 A3028 RMK AO2 T00700048 10110 20070 401130070
KDZB 200535Z AUTO 00000KT 10SM SCT037 09/05 A3028 RMK AO2 T00850051
KDZB 200515Z AUTO 00000KT 10SM BKN037 10/05 A3027 RMK AO2 T00960049
KDZB 200455Z AUTO 00000KT 10SM OVC035 10/06 A3027 RMK AO2 T00990057
KDZB 200435Z AUTO 00000KT 10SM OVC035 10/06 A3026 RMK AO2 T00950059
KDZB 200415Z AUTO 00000KT 10SM OVC035 09/06 A3026 RMK AO2 T00860062
KDZB 200355Z AUTO 00000KT 10SM BKN035 08/06 A3026 RMK AO2 T00800057
KDZB 200335Z AUTO 00000KT 10SM BKN035 08/06 A3025 RMK AO2 T00830056
KDZB 200315Z AUTO 00000KT 10SM OVC035 09/05 A3024 RMK AO2 T00880051
KDZB 200255Z AUTO 00000KT 10SM OVC035 10/05 A3023 RMK AO2 T01010051
KDZB 200235Z AUTO 00000KT 10SM OVC035 11/05 A3023 RMK AO2 T01050050
KDZB 200215Z AUTO 00000KT 10SM OVC035 11/05 A3022 RMK AO2 T01070051
KDZB 200155Z AUTO 00000KT 10SM OVC035 11/05 A3022 RMK AO2 T01070048
KDZB 200135Z AUTO 00000KT 10SM OVC035 11/05 A3021 RMK AO2 T01070049
KDZB 200115Z AUTO 00000KT 10SM OVC037 11/05 A3020 RMK AO2 T01070050
KDZB 200055Z AUTO 00000KT 10SM OVC037 11/05 A3020 RMK AO2 T01080048
KDZB 200035Z AUTO 00000KT 10SM OVC037 11/05 A3019 RMK AO2 T01080046
KDZB 200015Z AUTO 00000KT 10SM OVC039 11/05 A3019 RMK AO2 T01090046
KDZB 192355Z AUTO 05003KT 10SM OVC041 11/05 A3018 RMK AO2 T01100045 10113 20084
KDZB 192335Z AUTO 04003KT 10SM OVC041 11/04 A3017 RMK AO2 T01110044
KDZB 192315Z AUTO 00000KT 10SM OVC041 11/04 A3017 RMK AO2 T01110044
KDZB 192255Z AUTO 00000KT 10SM OVC041 11/04 A3017 RMK AO2 T01120041
KDZB 192235Z AUTO 00000KT 10SM BKN036 OVC042 11/04 A3017 RMK AO2 T01120040
KDZB 192215Z AUTO 00000KT 10SM OVC035 11/04 A3017 RMK AO2 T01110037
KDZB 192155Z AUTO 00000KT 10SM OVC035 11/04 A3017 RMK AO2 T01100036
KDZB 192135Z AUTO 00000KT 10SM OVC035 11/04 A3017 RMK AO2 T01100035
KDZB 192115Z AUTO 35003KT 10SM OVC035 11/03 A3017 RMK AO2 T01100033
KDZB 192055Z AUTO 00000KT 10SM OVC033 11/03 A3017 RMK AO2 LTG DSNT SE T01090031
KDZB 192035Z AUTO 00000KT 10SM SCT024 OVC033 11/03 A3017 RMK AO2 T01060029
KDZB 192015Z AUTO 00000KT 10SM BKN024 OVC033 10/03 A3017 RMK AO2 T01030029
KDZB 191955Z AUTO 00000KT 10SM OVC022 10/03 A3018 RMK AO2 T01000026
KDZB 191935Z AUTO 35003KT 10SM OVC022 10/02 A3018 RMK AO2 T01020023
KDZB 191915Z AUTO 00000KT 10SM OVC020 10/02 A3019 RMK AO2 T00980024
KDZB 191855Z AUTO 36003KT 10SM OVC020 10/02 A3020 RMK AO2 T00950024
KDZB 191835Z AUTO 34003KT 10SM BKN020 OVC027 09/02 A3021 RMK AO2 T00900021
KDZB 191815Z AUTO 00000KT 10SM BKN022 OVC028 09/02 A3022 RMK AO2 T00870021
KDZB 191755Z AUTO 36003KT 10SM OVC020 09/02 A3023 RMK AO2 T00850021 10085 20070
KDZB 191735Z AUTO 00000KT 10SM OVC020 08/02 A3024 RMK AO2 T00820020
KDZB 191715Z AUTO 35003KT 10SM BKN020 OVC024 08/02 A3024 RMK AO2 T00830021
KDZB 191655Z AUTO 01005KT 10SM BKN020 OVC024 08/02 A3025 RMK AO2 T00810021
KDZB 191635Z AUTO 03004KT 10SM BKN020 OVC025 09/02 A3025 RMK AO2 T00850020
KDZB 191615Z AUTO 35004KT 10SM OVC022 08/02 A3025 RMK AO2 T00770016
KDZB 191555Z AUTO 35003KT 10SM OVC022 08/02 A3025 RMK AO2 T00770018
KDZB 191535Z AUTO 36004KT 10SM OVC020 08/02 A3025 RMK AO2 T00760016
KDZB 191515Z AUTO 00000KT 10SM OVC018 08/02 A3024 RMK AO2 T00750017
KDZB 191455Z AUTO 36004KT 10SM OVC018 08/02 A3023 RMK AO2 T00760015
KDZB 191435Z AUTO 36007KT 10SM OVC018 08/02 A3022 RMK AO2 T00750015
KDZB 191415Z AUTO 01004KT 10SM OVC018 07/02 A3023 RMK AO2 T00720015
KDZB 191355Z AUTO 36005KT 10SM OVC018 07/01 A3022 RMK AO2 T00700013
KDZB 191335Z AUTO 01003KT 10SM OVC018 07/02 A3022 RMK AO2 T00710017
KDZB 191315Z AUTO 00000KT 10SM OVC018 07/02 A3021 RMK AO2 T00710017
KDZB 191255Z AUTO 01004KT 10SM OVC020 07/02 A3020 RMK AO2 T00710016
KDZB 191235Z AUTO 00000KT 10SM OVC020 07/02 A3020 RMK AO2 T00710016
KDZB 191215Z AUTO 00000KT 10SM OVC020 07/02 A3020 RMK AO2 T00700018
KDZB 191155Z AUTO 03003KT 10SM OVC022 07/02 A3019 RMK AO2 T00700016 10082 20070
KDZB 191135Z AUTO 00000KT 10SM OVC022 07/02 A3019 RMK AO2 T00710019
KDZB 191115Z AUTO 01003KT 10SM OVC022 07/02 A3019 RMK AO2 LTG DSNT E T00700019
KDZB 191055Z AUTO 01003KT 10SM OVC022 07/02 A3019 RMK AO2 LTG DSNT E T00710020
KDZB 191035Z AUTO 00000KT 10SM OVC022 07/02 A3019 RMK AO2 T00710021
KDZB 191015Z AUTO 36005KT 10SM OVC022 07/02 A3019 RMK AO2 T00710019
KDZB 190955Z AUTO 36005KT 10SM OVC022 07/02 A3020 RMK AO2 T00720021
KDZB 190935Z AUTO 01003KT 10SM OVC022 07/02 A3019 RMK AO2 T00710018